Time;durP1;ratioP1;P1;durP2;ratioP2;P2;SDS_P1;SDS_P2;PMS_P1;PMS_P2;Temp;Humidity;BMP_temperature;BMP_pressure;BME280_temperature;BME280_humidity;BME280_pressure;Samples;Min_cycle;Max_cycle;Signal;HPM_P1;HPM_P2
2022/07/02 00:00:43;;;;;;;167.10;121.07;;;;;;;;;;4988384;28;20265;-51
2022/07/02 00:03:10;;;;;;;167.98;124.07;;;;;;;;;;4983687;28;21842;-51
2022/07/02 00:05:39;;;;;;;155.65;114.78;;;;;;;;;;4988183;28;20201;-51
2022/07/02 00:08:06;;;;;;;146.93;114.60;;;;;;;;;;4996309;28;20708;-51
2022/07/02 00:10:32;;;;;;;242.02;143.90;;;;;;;;;;4985640;28;20248;-51
2022/07/02 00:12:58;;;;;;;205.88;133.68;;;;;;;;;;4979247;28;20217;-50
2022/07/02 00:15:24;;;;;;;238.93;138.35;;;;;;;;;;4987114;28;20224;-51
2022/07/02 00:17:50;;;;;;;169.82;117.65;;;;;;;;;;4987490;28;20655;-51
2022/07/02 00:20:16;;;;;;;177.40;120.65;;;;;;;;;;4991181;28;20222;-50
2022/07/02 00:22:43;;;;;;;161.50;116.47;;;;;;;;;;4990842;28;20212;-51
2022/07/02 00:25:09;;;;;;;204.13;126.90;;;;;;;;;;4992223;28;20217;-51
2022/07/02 00:27:37;;;;;;;172.88;116.35;;;;;;;;;;4991090;28;20332;-51
2022/07/02 00:30:04;;;;;;;168.60;114.57;;;;;;;;;;4990390;28;20556;-51
2022/07/02 00:32:31;;;;;;;203.00;125.75;;;;;;;;;;4986593;28;20597;-51
2022/07/02 00:34:58;;;;;;;166.05;114.47;;;;;;;;;;4987649;28;20670;-51
2022/07/02 00:37:26;;;;;;;241.43;132.30;;;;;;;;;;4986370;28;20303;-50
2022/07/02 00:39:53;;;;;;;125.10;102.20;;;;;;;;;;4986913;28;20240;-50
2022/07/02 00:42:20;;;;;;;147.23;107.93;;;;;;;;;;5007858;28;20194;-51
2022/07/02 00:44:46;;;;;;;177.88;118.50;;;;;;;;;;4993738;28;20188;-50
2022/07/02 00:47:12;;;;;;;162.43;111.53;;;;;;;;;;4989827;28;20318;-51
2022/07/02 00:49:38;;;;;;;200.02;118.75;;;;;;;;;;4985629;28;20212;-51
2022/07/02 00:52:05;;;;;;;185.52;117.15;;;;;;;;;;4988333;28;20286;-50
2022/07/02 00:54:31;;;;;;;211.40;126.00;;;;;;;;;;4981057;28;20629;-51
2022/07/02 00:56:57;;;;;;;178.13;116.72;;;;;;;;;;4992057;28;20236;-51
2022/07/02 00:59:24;;;;;;;237.52;133.80;;;;;;;;;;4992178;28;20751;-51
2022/07/02 01:01:50;;;;;;;134.68;104.68;;;;;;;;;;4989327;28;20209;-51
2022/07/02 01:04:17;;;;;;;194.38;120.15;;;;;;;;;;4983370;28;20308;-51
2022/07/02 01:06:43;;;;;;;161.82;110.20;;;;;;;;;;4997604;28;20263;-51
2022/07/02 01:11:58;;;;;;;160.85;108.82;;;;;;;;;;4991206;28;20232;-51
2022/07/02 01:14:24;;;;;;;167.68;112.35;;;;;;;;;;4989039;28;20221;-51
2022/07/02 01:16:51;;;;;;;147.07;108.28;;;;;;;;;;4990813;28;20216;-51
2022/07/02 01:19:20;;;;;;;215.73;126.65;;;;;;;;;;4983926;28;20231;-51
2022/07/02 01:22:25;;;;;;;173.52;112.63;;;;;;;;;;4985951;28;20840;-51
2022/07/02 01:24:52;;;;;;;132.43;101.15;;;;;;;;;;4950121;28;20213;-51
2022/07/02 01:27:19;;;;;;;155.45;109.82;;;;;;;;;;4953069;28;20289;-51
2022/07/02 01:29:45;;;;;;;187.15;115.40;;;;;;;;;;4961176;28;20221;-51
2022/07/02 01:32:12;;;;;;;149.77;103.90;;;;;;;;;;4992827;28;20304;-51
2022/07/02 01:34:44;;;;;;;162.60;107.03;;;;;;;;;;4985234;28;20255;-51
2022/07/02 01:37:11;;;;;;;167.82;109.03;;;;;;;;;;4987494;28;20773;-51
2022/07/02 01:39:38;;;;;;;201.63;119.93;;;;;;;;;;4986969;28;20223;-51
2022/07/02 01:42:05;;;;;;;191.35;117.10;;;;;;;;;;4986749;28;20216;-51
2022/07/02 01:44:31;;;;;;;154.88;105.43;;;;;;;;;;4990630;28;20189;-51
2022/07/02 01:46:57;;;;;;;186.05;113.65;;;;;;;;;;4986633;28;20218;-51
2022/07/02 01:49:22;;;;;;;171.73;108.05;;;;;;;;;;4988466;28;20705;-50
2022/07/02 01:51:49;;;;;;;148.75;104.20;;;;;;;;;;4986201;28;20220;-51
2022/07/02 01:54:15;;;;;;;236.07;128.48;;;;;;;;;;4980081;28;20661;-50
2022/07/02 01:56:41;;;;;;;204.35;119.28;;;;;;;;;;4993975;28;20205;-51
2022/07/02 01:59:07;;;;;;;104.78;90.55;;;;;;;;;;4993892;28;20806;-51
2022/07/02 02:01:33;;;;;;;111.20;89.88;;;;;;;;;;4994768;28;20307;-51
2022/07/02 02:03:59;;;;;;;177.20;111.75;;;;;;;;;;4995938;28;20978;-50
2022/07/02 02:06:27;;;;;;;174.68;108.78;;;;;;;;;;4989200;28;20223;-51
2022/07/02 02:08:53;;;;;;;165.30;110.43;;;;;;;;;;4993098;28;20673;-51
2022/07/02 02:11:19;;;;;;;159.55;109.28;;;;;;;;;;4991838;28;20228;-51
2022/07/02 02:13:45;;;;;;;189.57;114.18;;;;;;;;;;4990329;28;20231;-51
2022/07/02 02:16:11;;;;;;;176.95;113.93;;;;;;;;;;4991815;28;20228;-51
2022/07/02 02:18:37;;;;;;;175.93;113.18;;;;;;;;;;4994391;28;20449;-51
2022/07/02 02:21:03;;;;;;;162.82;109.25;;;;;;;;;;4988817;28;20220;-51
2022/07/02 02:23:29;;;;;;;146.85;104.47;;;;;;;;;;4998297;28;20192;-50
2022/07/02 02:25:55;;;;;;;144.02;102.57;;;;;;;;;;4997371;28;20228;-51
2022/07/02 02:28:22;;;;;;;101.35;90.43;;;;;;;;;;4994193;28;20551;-51
2022/07/02 02:30:48;;;;;;;172.57;111.90;;;;;;;;;;4994154;28;20227;-51
2022/07/02 02:33:14;;;;;;;187.88;113.15;;;;;;;;;;4992227;28;20189;-51
2022/07/02 02:35:40;;;;;;;251.02;138.30;;;;;;;;;;4989123;28;20197;-51
2022/07/02 02:38:06;;;;;;;201.52;120.90;;;;;;;;;;4991998;28;20282;-51
2022/07/02 02:40:32;;;;;;;255.50;136.13;;;;;;;;;;4994207;28;20221;-51
2022/07/02 02:42:58;;;;;;;145.27;104.00;;;;;;;;;;4990469;28;20267;-51
2022/07/02 02:45:24;;;;;;;260.42;136.07;;;;;;;;;;4983339;28;20885;-51
2022/07/02 02:47:50;;;;;;;187.47;115.30;;;;;;;;;;4994177;28;20185;-51
2022/07/02 02:50:17;;;;;;;191.70;116.10;;;;;;;;;;4992105;28;20235;-51
2022/07/02 02:52:43;;;;;;;187.30;113.35;;;;;;;;;;4994173;28;20573;-50
2022/07/02 02:55:09;;;;;;;214.50;122.60;;;;;;;;;;4989192;28;20222;-51
2022/07/02 02:57:35;;;;;;;223.55;126.78;;;;;;;;;;4983592;28;20224;-51
2022/07/02 03:00:01;;;;;;;154.15;105.47;;;;;;;;;;4996501;28;20212;-51
2022/07/02 03:02:27;;;;;;;137.85;101.47;;;;;;;;;;4992986;28;20303;-50
2022/07/02 03:04:52;;;;;;;147.73;101.88;;;;;;;;;;5011678;28;20311;-51
2022/07/02 03:07:18;;;;;;;150.75;101.45;;;;;;;;;;4988183;28;20578;-51
2022/07/02 03:09:44;;;;;;;195.02;114.93;;;;;;;;;;4993581;28;20378;-50
2022/07/02 03:12:11;;;;;;;165.80;106.65;;;;;;;;;;4996994;28;20204;-51
2022/07/02 03:14:37;;;;;;;146.40;104.53;;;;;;;;;;4994898;28;20693;-50
2022/07/02 03:17:03;;;;;;;164.02;108.63;;;;;;;;;;4994241;28;20225;-51
2022/07/02 03:19:29;;;;;;;157.85;106.15;;;;;;;;;;4997315;28;20232;-50
2022/07/02 03:21:55;;;;;;;155.52;107.45;;;;;;;;;;4995342;28;20227;-50
2022/07/02 03:24:21;;;;;;;188.68;116.50;;;;;;;;;;4996229;28;20212;-51
2022/07/02 03:26:46;;;;;;;209.30;121.22;;;;;;;;;;4990004;28;20197;-50
2022/07/02 03:29:12;;;;;;;169.27;109.03;;;;;;;;;;4994086;28;20224;-51
2022/07/02 03:31:38;;;;;;;129.52;99.32;;;;;;;;;;4996551;28;20213;-51
2022/07/02 03:34:04;;;;;;;132.02;99.85;;;;;;;;;;4995602;28;20673;-51
2022/07/02 03:36:30;;;;;;;183.48;114.82;;;;;;;;;;4986921;28;20335;-51
2022/07/02 03:38:56;;;;;;;209.70;122.85;;;;;;;;;;4991286;28;20636;-51
2022/07/02 03:41:22;;;;;;;203.27;120.13;;;;;;;;;;4992067;28;20239;-51
2022/07/02 03:43:50;;;;;;;160.43;108.25;;;;;;;;;;4994778;28;20630;-51
2022/07/02 03:46:16;;;;;;;195.50;118.25;;;;;;;;;;4992238;28;20304;-51
2022/07/02 03:48:42;;;;;;;185.77;115.07;;;;;;;;;;4996744;28;20217;-51
2022/07/02 03:51:08;;;;;;;177.38;112.63;;;;;;;;;;4995764;28;20216;-50
2022/07/02 03:53:34;;;;;;;179.07;115.03;;;;;;;;;;4994912;28;20192;-51
2022/07/02 03:56:00;;;;;;;154.75;107.10;;;;;;;;;;4991838;28;20228;-51
2022/07/02 03:58:26;;;;;;;151.88;105.15;;;;;;;;;;4997003;28;20221;-50
2022/07/02 04:00:52;;;;;;;142.25;104.50;;;;;;;;;;4989551;28;20224;-51
2022/07/02 04:03:18;;;;;;;149.23;106.32;;;;;;;;;;4992856;28;20185;-51
2022/07/02 04:05:44;;;;;;;272.92;144.20;;;;;;;;;;4987591;28;20228;-51
2022/07/02 04:08:10;;;;;;;221.57;127.05;;;;;;;;;;4983565;28;20375;-50
2022/07/02 04:10:35;;;;;;;191.68;118.97;;;;;;;;;;4991050;28;20299;-51
2022/07/02 04:13:01;;;;;;;133.52;102.40;;;;;;;;;;4992968;28;20216;-51
2022/07/02 04:15:27;;;;;;;206.65;125.07;;;;;;;;;;4989717;28;20213;-51
2022/07/02 04:17:53;;;;;;;231.52;132.63;;;;;;;;;;4992143;28;20185;-51
2022/07/02 04:20:19;;;;;;;264.73;136.98;;;;;;;;;;4986728;28;20271;-50
2022/07/02 04:22:45;;;;;;;210.15;124.28;;;;;;;;;;4987128;28;20606;-51
2022/07/02 04:25:11;;;;;;;209.75;125.05;;;;;;;;;;4988764;28;20223;-50
2022/07/02 04:27:37;;;;;;;148.43;107.60;;;;;;;;;;4992907;28;20221;-51
2022/07/02 04:30:03;;;;;;;216.88;128.52;;;;;;;;;;4990142;28;20211;-51
2022/07/02 04:32:29;;;;;;;162.18;110.63;;;;;;;;;;4996065;28;20255;-51
2022/07/02 04:34:55;;;;;;;222.38;127.25;;;;;;;;;;4987669;28;20243;-51
2022/07/02 04:37:21;;;;;;;206.07;124.35;;;;;;;;;;4985302;28;20334;-50
2022/07/02 04:39:47;;;;;;;232.52;135.35;;;;;;;;;;4984351;28;20638;-51
2022/07/02 04:42:13;;;;;;;161.07;112.15;;;;;;;;;;4991409;28;20209;-50
2022/07/02 04:44:39;;;;;;;198.93;124.25;;;;;;;;;;4988361;28;20189;-51
2022/07/02 04:47:05;;;;;;;192.55;118.82;;;;;;;;;;4992977;28;20306;-51
2022/07/02 04:49:32;;;;;;;218.18;128.70;;;;;;;;;;4989114;28;20235;-51
2022/07/02 04:51:58;;;;;;;240.48;136.45;;;;;;;;;;4983415;28;20217;-51
2022/07/02 04:54:24;;;;;;;224.85;128.95;;;;;;;;;;4982284;28;20225;-51
2022/07/02 04:56:51;;;;;;;189.60;120.00;;;;;;;;;;4995312;28;20209;-51
2022/07/02 04:59:17;;;;;;;214.37;129.77;;;;;;;;;;4989215;28;20310;-51
2022/07/02 05:01:43;;;;;;;143.77;108.85;;;;;;;;;;4988032;28;20306;-51
2022/07/02 05:04:10;;;;;;;183.20;121.13;;;;;;;;;;5007684;28;20239;-51
2022/07/02 05:06:36;;;;;;;206.85;125.90;;;;;;;;;;4987270;28;20225;-50
2022/07/02 05:09:02;;;;;;;298.00;157.77;;;;;;;;;;4988580;28;20608;-51
2022/07/02 05:11:27;;;;;;;134.40;109.95;;;;;;;;;;4990930;28;20184;-52
2022/07/02 05:13:53;;;;;;;240.18;142.07;;;;;;;;;;4988716;28;20245;-51
2022/07/02 05:16:19;;;;;;;213.60;134.65;;;;;;;;;;4990044;28;20621;-51
2022/07/02 05:18:45;;;;;;;260.58;144.90;;;;;;;;;;4983121;28;20382;-51
2022/07/02 05:21:11;;;;;;;246.38;139.32;;;;;;;;;;4984858;28;20213;-51
2022/07/02 05:23:37;;;;;;;244.82;138.00;;;;;;;;;;4990250;28;20185;-51
2022/07/02 05:26:03;;;;;;;188.10;122.40;;;;;;;;;;4989463;28;20220;-51
2022/07/02 05:28:29;;;;;;;176.10;117.20;;;;;;;;;;4991509;28;20244;-51
2022/07/02 05:30:55;;;;;;;171.35;115.68;;;;;;;;;;4989480;28;20310;-51
2022/07/02 05:33:21;;;;;;;182.95;119.18;;;;;;;;;;4993989;28;20185;-51
2022/07/02 05:35:47;;;;;;;250.63;142.55;;;;;;;;;;4985089;28;20263;-50
2022/07/02 05:38:13;;;;;;;231.48;134.52;;;;;;;;;;4988774;28;20289;-51
2022/07/02 05:40:39;;;;;;;188.10;124.20;;;;;;;;;;4990726;28;20221;-52
2022/07/02 05:43:05;;;;;;;205.43;129.35;;;;;;;;;;4989539;28;20252;-51
2022/07/02 05:45:31;;;;;;;239.63;141.60;;;;;;;;;;4988800;28;20232;-51
2022/07/02 05:47:57;;;;;;;259.25;145.43;;;;;;;;;;4990517;28;20480;-51
2022/07/02 05:50:23;;;;;;;306.92;160.65;;;;;;;;;;4990897;28;20590;-51
2022/07/02 05:52:49;;;;;;;267.92;151.25;;;;;;;;;;4988617;28;20213;-51
2022/07/02 05:55:15;;;;;;;250.23;143.63;;;;;;;;;;4985759;28;20213;-51
2022/07/02 05:57:41;;;;;;;275.55;153.35;;;;;;;;;;4986214;28;20218;-51
2022/07/02 06:00:08;;;;;;;268.48;154.25;;;;;;;;;;4985595;28;20215;-51
2022/07/02 06:02:34;;;;;;;177.57;120.78;;;;;;;;;;4991859;28;20269;-53
2022/07/02 06:07:38;;;;;;;226.07;139.57;;;;;;;;;;4984338;28;20312;-54
2022/07/02 06:07:46;;;;;;;192.40;135.48;;;;;;;;;;4985689;28;20219;-53
2022/07/02 06:10:18;;;;;;;218.75;134.52;;;;;;;;;;4988164;28;20228;-53
2022/07/02 06:12:44;;;;;;;179.18;130.23;;;;;;;;;;4987049;28;20300;-52
2022/07/02 06:15:10;;;;;;;239.48;143.68;;;;;;;;;;4991087;28;20646;-52
2022/07/02 06:17:36;;;;;;;231.07;142.15;;;;;;;;;;4990208;28;20208;-52
2022/07/02 06:20:02;;;;;;;177.68;119.45;;;;;;;;;;4985333;28;20221;-51
2022/07/02 06:22:28;;;;;;;187.75;124.22;;;;;;;;;;4987558;28;20212;-52
2022/07/02 06:24:55;;;;;;;291.25;156.82;;;;;;;;;;4986601;28;20288;-52
2022/07/02 06:27:21;;;;;;;229.20;149.27;;;;;;;;;;4988351;28;20976;-52
2022/07/02 06:29:48;;;;;;;221.05;148.75;;;;;;;;;;4989511;28;20189;-53
2022/07/02 06:32:16;;;;;;;218.70;138.35;;;;;;;;;;4987262;28;20789;-51
2022/07/02 06:34:42;;;;;;;288.17;158.10;;;;;;;;;;4988194;28;20221;-51
2022/07/02 06:37:08;;;;;;;199.55;135.45;;;;;;;;;;4991453;28;20217;-51
2022/07/02 06:39:34;;;;;;;218.50;143.88;;;;;;;;;;4988354;28;20240;-51
2022/07/02 06:44:46;;;;;;;247.32;149.85;;;;;;;;;;4989010;28;20208;-51
2022/07/02 06:47:12;;;;;;;207.27;138.50;;;;;;;;;;4989505;28;20243;-51
2022/07/02 06:49:38;;;;;;;187.88;131.48;;;;;;;;;;4990216;28;20290;-51
2022/07/02 06:52:04;;;;;;;190.55;132.45;;;;;;;;;;5004612;28;20261;-51
2022/07/02 06:54:30;;;;;;;201.55;136.52;;;;;;;;;;4996989;28;20213;-51
2022/07/02 06:56:56;;;;;;;202.38;143.32;;;;;;;;;;5000455;28;20215;-51
2022/07/02 06:59:22;;;;;;;245.38;156.60;;;;;;;;;;4989190;28;20539;-53
2022/07/02 07:01:48;;;;;;;240.70;150.82;;;;;;;;;;4993365;28;20688;-53
2022/07/02 07:04:14;;;;;;;246.80;156.50;;;;;;;;;;4992315;28;20550;-52
2022/07/02 07:06:51;;;;;;;218.13;152.88;;;;;;;;;;4991533;28;20220;-53
2022/07/02 07:09:18;;;;;;;258.95;157.25;;;;;;;;;;4995664;28;20232;-53
2022/07/02 07:11:44;;;;;;;197.23;141.90;;;;;;;;;;4997231;28;20228;-53
2022/07/02 07:14:09;;;;;;;261.02;165.02;;;;;;;;;;4992466;28;20732;-53
2022/07/02 07:16:35;;;;;;;234.80;153.15;;;;;;;;;;4990828;28;20767;-53
2022/07/02 07:19:03;;;;;;;238.52;158.40;;;;;;;;;;4988099;28;20225;-53
2022/07/02 07:21:29;;;;;;;318.25;191.60;;;;;;;;;;4991513;28;20225;-53
2022/07/02 07:23:54;;;;;;;328.25;193.07;;;;;;;;;;4976422;28;20201;-53
2022/07/02 07:26:21;;;;;;;257.25;169.07;;;;;;;;;;4982898;28;20221;-52
2022/07/02 07:28:47;;;;;;;229.80;162.95;;;;;;;;;;4984055;28;20271;-53
2022/07/02 07:31:13;;;;;;;231.43;154.02;;;;;;;;;;4984806;28;20214;-52
2022/07/02 07:33:40;;;;;;;263.25;157.82;;;;;;;;;;4991601;28;20223;-53
2022/07/02 07:36:06;;;;;;;256.02;166.23;;;;;;;;;;4980852;28;20209;-53
2022/07/02 07:38:32;;;;;;;206.48;146.13;;;;;;;;;;5008746;28;20177;-54
2022/07/02 07:40:58;;;;;;;340.42;203.18;;;;;;;;;;4988902;28;20232;-54
2022/07/02 07:43:24;;;;;;;233.18;156.35;;;;;;;;;;4998657;28;20216;-54
2022/07/02 07:45:50;;;;;;;235.32;166.02;;;;;;;;;;4987113;28;20716;-54
2022/07/02 07:48:16;;;;;;;260.83;177.50;;;;;;;;;;4994735;28;20173;-53
2022/07/02 07:50:42;;;;;;;260.65;178.75;;;;;;;;;;4992405;28;20565;-53
2022/07/02 07:53:08;;;;;;;237.88;168.18;;;;;;;;;;4989597;28;20290;-54
2022/07/02 07:55:34;;;;;;;284.48;184.85;;;;;;;;;;4990036;28;20217;-53
2022/07/02 07:58:00;;;;;;;235.70;168.00;;;;;;;;;;4989253;28;20267;-53
2022/07/02 08:00:26;;;;;;;307.10;197.63;;;;;;;;;;4995680;28;20225;-53
2022/07/02 08:02:52;;;;;;;280.58;186.95;;;;;;;;;;5010531;28;20204;-54
2022/07/02 08:05:18;;;;;;;257.35;167.32;;;;;;;;;;4990712;28;20625;-54
2022/07/02 08:07:44;;;;;;;256.90;175.50;;;;;;;;;;4997293;28;20241;-53
2022/07/02 08:10:10;;;;;;;250.38;176.77;;;;;;;;;;4987417;28;20771;-53
2022/07/02 08:12:37;;;;;;;305.77;191.38;;;;;;;;;;4993204;28;20292;-53
2022/07/02 08:15:03;;;;;;;267.92;175.98;;;;;;;;;;4990632;28;20243;-54
2022/07/02 08:17:30;;;;;;;268.08;170.32;;;;;;;;;;4989496;28;20329;-54
2022/07/02 08:19:56;;;;;;;260.65;167.73;;;;;;;;;;4995065;28;20224;-54
2022/07/02 08:22:22;;;;;;;270.23;174.15;;;;;;;;;;4990851;28;20228;-54
2022/07/02 08:24:48;;;;;;;297.85;191.15;;;;;;;;;;4989318;28;20220;-54
2022/07/02 08:27:14;;;;;;;382.58;229.07;;;;;;;;;;4984115;28;20598;-53
2022/07/02 08:29:40;;;;;;;406.85;235.77;;;;;;;;;;4976307;28;20188;-53
2022/07/02 08:32:07;;;;;;;301.70;196.75;;;;;;;;;;4982868;28;20312;-53
2022/07/02 08:34:33;;;;;;;294.02;203.40;;;;;;;;;;4990249;28;20222;-54
2022/07/02 08:36:59;;;;;;;316.08;215.05;;;;;;;;;;4987641;28;20286;-53
2022/07/02 08:39:25;;;;;;;646.28;348.23;;;;;;;;;;4982158;28;20351;-54
2022/07/02 08:41:53;;;;;;;314.80;201.10;;;;;;;;;;4987162;28;20184;-53
2022/07/02 08:44:21;;;;;;;360.95;220.23;;;;;;;;;;4983505;28;20636;-54
2022/07/02 08:46:47;;;;;;;339.30;213.63;;;;;;;;;;4984813;28;20220;-54
2022/07/02 08:49:17;;;;;;;443.85;257.88;;;;;;;;;;4977969;28;20205;-54
2022/07/02 08:51:49;;;;;;;428.80;252.25;;;;;;;;;;4987210;28;20241;-54
2022/07/02 08:54:15;;;;;;;376.85;235.00;;;;;;;;;;4985974;28;20181;-54
2022/07/02 08:56:41;;;;;;;359.10;227.82;;;;;;;;;;4999852;28;20251;-54
2022/07/02 08:59:07;;;;;;;307.00;211.65;;;;;;;;;;4989827;28;20213;-53
2022/07/02 09:01:33;;;;;;;393.70;260.00;;;;;;;;;;4985002;28;20220;-53
2022/07/02 09:04:00;;;;;;;349.15;231.65;;;;;;;;;;4983046;28;20228;-53
2022/07/02 09:06:28;;;;;;;324.58;220.35;;;;;;;;;;4991386;28;20276;-53
2022/07/02 09:08:54;;;;;;;290.25;204.52;;;;;;;;;;5000380;28;20181;-54
2022/07/02 09:11:20;;;;;;;333.40;222.52;;;;;;;;;;4991797;28;20228;-53
2022/07/02 09:13:46;;;;;;;303.70;198.65;;;;;;;;;;4995998;28;20299;-53
2022/07/02 09:16:12;;;;;;;339.92;212.43;;;;;;;;;;4990602;28;20230;-53
2022/07/02 09:18:38;;;;;;;393.30;239.43;;;;;;;;;;4982497;28;20271;-54
2022/07/02 09:21:04;;;;;;;359.77;238.07;;;;;;;;;;4990221;28;20210;-53
2022/07/02 09:23:30;;;;;;;337.13;223.52;;;;;;;;;;4986422;28;20242;-53
2022/07/02 09:25:56;;;;;;;364.88;247.98;;;;;;;;;;4982236;28;20209;-53
2022/07/02 09:28:22;;;;;;;339.92;228.63;;;;;;;;;;4979529;28;20205;-53
2022/07/02 09:30:48;;;;;;;416.20;272.02;;;;;;;;;;4986392;28;20752;-52
2022/07/02 09:33:35;;;;;;;393.77;261.08;;;;;;;;;;4987847;28;20272;-53
2022/07/02 09:36:08;;;;;;;367.83;244.13;;;;;;;;;;4984641;28;20208;-53
2022/07/02 09:38:40;;;;;;;590.72;340.80;;;;;;;;;;4989293;28;20232;-53
2022/07/02 09:41:10;;;;;;;371.25;239.68;;;;;;;;;;4991943;28;20237;-53
2022/07/02 09:43:38;;;;;;;301.88;211.38;;;;;;;;;;4992008;28;20227;-53
2022/07/02 09:46:14;;;;;;;417.60;277.45;;;;;;;;;;4988363;28;20267;-53
2022/07/02 09:48:40;;;;;;;338.40;225.55;;;;;;;;;;4984785;28;20220;-53
2022/07/02 09:51:06;;;;;;;349.67;228.77;;;;;;;;;;4982377;28;20313;-53
2022/07/02 09:53:32;;;;;;;375.73;246.82;;;;;;;;;;4984134;28;20215;-54
2022/07/02 09:55:59;;;;;;;359.60;243.80;;;;;;;;;;4983432;28;20225;-54
2022/07/02 09:58:26;;;;;;;426.60;263.23;;;;;;;;;;4980008;28;20229;-53
2022/07/02 10:00:52;;;;;;;438.83;251.73;;;;;;;;;;4980192;28;20244;-52
2022/07/02 10:03:18;;;;;;;470.92;258.30;;;;;;;;;;4983482;28;20669;-53
2022/07/02 10:05:50;;;;;;;359.67;237.93;;;;;;;;;;4989856;28;20219;-53
2022/07/02 10:08:17;;;;;;;349.40;229.20;;;;;;;;;;4992527;28;20304;-53
2022/07/02 10:10:43;;;;;;;369.55;238.20;;;;;;;;;;4991818;28;20218;-54
2022/07/02 10:13:12;;;;;;;337.52;226.65;;;;;;;;;;4985104;28;20218;-53
2022/07/02 10:15:40;;;;;;;450.45;270.67;;;;;;;;;;4987342;28;20221;-53
2022/07/02 10:18:07;;;;;;;450.60;267.33;;;;;;;;;;4983491;28;20258;-53
2022/07/02 10:20:34;;;;;;;471.23;281.88;;;;;;;;;;4973733;28;20205;-52
2022/07/02 10:23:02;;;;;;;401.70;263.50;;;;;;;;;;4985751;28;20720;-54
2022/07/02 10:25:28;;;;;;;389.05;260.75;;;;;;;;;;4987936;28;20216;-53
2022/07/02 10:27:57;;;;;;;414.48;285.02;;;;;;;;;;4991522;28;20232;-53
2022/07/02 10:30:35;;;;;;;397.75;252.65;;;;;;;;;;4993042;28;20216;-53
2022/07/02 10:33:15;;;;;;;368.90;240.90;;;;;;;;;;4984748;28;20185;-53
2022/07/02 10:35:42;;;;;;;376.65;253.10;;;;;;;;;;4990270;28;20444;-53
2022/07/02 10:38:08;;;;;;;350.58;242.30;;;;;;;;;;4991765;28;20863;-53
2022/07/02 10:40:45;;;;;;;357.48;251.88;;;;;;;;;;4997841;28;20311;-53
2022/07/02 10:43:15;;;;;;;346.35;242.43;;;;;;;;;;4990322;28;20213;-53
2022/07/02 10:45:41;;;;;;;379.13;249.77;;;;;;;;;;4992629;28;20629;-54
2022/07/02 10:48:07;;;;;;;332.27;230.90;;;;;;;;;;4990711;28;20201;-53
2022/07/02 10:50:37;;;;;;;330.75;234.95;;;;;;;;;;4995841;28;20639;-53
2022/07/02 10:53:22;;;;;;;338.85;226.25;;;;;;;;;;4999808;28;20221;-53
2022/07/02 10:55:54;;;;;;;344.77;230.73;;;;;;;;;;4993604;28;20241;-53
2022/07/02 10:58:21;;;;;;;348.90;236.38;;;;;;;;;;4997214;28;20221;-55
2022/07/02 11:00:47;;;;;;;345.30;233.95;;;;;;;;;;4996063;28;20289;-55
2022/07/02 11:03:13;;;;;;;323.45;228.00;;;;;;;;;;4989008;28;20268;-55
2022/07/02 11:05:58;;;;;;;380.35;248.35;;;;;;;;;;4995820;28;20386;-55
2022/07/02 11:08:48;;;;;;;349.35;229.45;;;;;;;;;;4993673;28;20217;-55
2022/07/02 11:11:19;;;;;;;330.10;228.38;;;;;;;;;;4992993;28;20241;-55
2022/07/02 11:13:45;;;;;;;320.92;219.80;;;;;;;;;;4995644;28;20721;-55
2022/07/02 11:16:17;;;;;;;438.27;274.05;;;;;;;;;;4986706;28;20235;-55
2022/07/02 11:18:45;;;;;;;328.65;227.50;;;;;;;;;;4993256;28;20674;-54
2022/07/02 11:21:12;;;;;;;344.52;233.27;;;;;;;;;;4993534;28;20205;-54
2022/07/02 11:23:39;;;;;;;379.17;247.38;;;;;;;;;;4996196;28;20308;-55
2022/07/02 11:26:05;;;;;;;345.25;231.93;;;;;;;;;;4993822;28;20717;-55
2022/07/02 11:28:31;;;;;;;364.08;241.43;;;;;;;;;;4994343;28;20228;-55
2022/07/02 11:30:58;;;;;;;346.85;235.55;;;;;;;;;;4998026;28;20209;-55
2022/07/02 11:33:24;;;;;;;397.58;258.75;;;;;;;;;;4982125;28;20243;-52
2022/07/02 11:35:53;;;;;;;419.63;270.25;;;;;;;;;;4985809;28;20632;-53
2022/07/02 11:38:19;;;;;;;370.15;251.98;;;;;;;;;;4986377;28;20221;-53
2022/07/02 11:40:45;;;;;;;382.25;263.10;;;;;;;;;;4986114;28;20232;-53
2022/07/02 11:43:15;;;;;;;434.45;290.95;;;;;;;;;;4996059;28;20721;-53
2022/07/02 11:45:44;;;;;;;445.08;292.95;;;;;;;;;;4987244;28;20578;-53
2022/07/02 11:48:20;;;;;;;407.52;274.65;;;;;;;;;;4986957;28;20259;-52
2022/07/02 11:50:54;;;;;;;386.17;272.10;;;;;;;;;;5013761;28;20553;-52
2022/07/02 11:53:20;;;;;;;367.25;261.83;;;;;;;;;;4999770;28;20231;-52
2022/07/02 11:55:46;;;;;;;392.10;274.38;;;;;;;;;;5001749;28;20505;-52
2022/07/02 11:58:12;;;;;;;443.17;296.95;;;;;;;;;;5001013;28;20440;-52
2022/07/02 12:00:38;;;;;;;406.08;273.92;;;;;;;;;;4989419;28;20727;-52
2022/07/02 12:03:13;;;;;;;440.27;290.60;;;;;;;;;;4987714;28;20653;-52
2022/07/02 12:05:49;;;;;;;447.52;297.23;;;;;;;;;;4983975;28;20288;-52
2022/07/02 12:08:16;;;;;;;422.52;286.88;;;;;;;;;;4982945;28;21125;-52
2022/07/02 12:10:42;;;;;;;443.40;300.75;;;;;;;;;;4982793;28;20274;-53
2022/07/02 12:13:11;;;;;;;394.90;278.65;;;;;;;;;;4988942;28;20221;-52
2022/07/02 12:15:41;;;;;;;434.92;299.00;;;;;;;;;;4998611;28;20304;-52
2022/07/02 12:18:20;;;;;;;426.02;293.42;;;;;;;;;;4991300;28;20186;-52
2022/07/02 12:20:47;;;;;;;388.50;269.98;;;;;;;;;;4993404;28;20215;-52
2022/07/02 12:23:13;;;;;;;371.70;267.08;;;;;;;;;;4990919;28;20219;-52
2022/07/02 12:25:46;;;;;;;446.63;307.10;;;;;;;;;;4990187;28;20636;-52
2022/07/02 12:30:56;;;;;;;378.25;264.45;;;;;;;;;;4996522;28;20569;-52
2022/07/02 12:33:32;;;;;;;389.52;267.95;;;;;;;;;;4997183;28;20229;-52
2022/07/02 12:36:02;;;;;;;404.67;289.05;;;;;;;;;;4986343;28;20615;-52
2022/07/02 12:38:28;;;;;;;432.02;287.27;;;;;;;;;;4986148;28;20212;-53
2022/07/02 12:41:00;;;;;;;371.73;281.58;;;;;;;;;;4991054;28;20843;-53
2022/07/02 12:43:26;;;;;;;476.27;321.60;;;;;;;;;;4984641;28;20640;-53
2022/07/02 12:45:52;;;;;;;393.15;286.92;;;;;;;;;;4991141;28;20223;-53
2022/07/02 12:48:19;;;;;;;393.95;278.30;;;;;;;;;;4997673;28;20256;-52
2022/07/02 12:50:51;;;;;;;403.50;292.95;;;;;;;;;;4996511;28;20216;-53
2022/07/02 12:53:18;;;;;;;439.30;309.83;;;;;;;;;;4991460;28;20224;-52
2022/07/02 12:55:45;;;;;;;433.60;310.67;;;;;;;;;;4984498;28;20231;-52
2022/07/02 12:58:12;;;;;;;379.23;291.40;;;;;;;;;;4991704;28;20772;-53
2022/07/02 13:00:40;;;;;;;385.95;298.95;;;;;;;;;;5011911;28;20701;-53
2022/07/02 13:03:10;;;;;;;373.08;286.00;;;;;;;;;;4995973;28;20181;-52
2022/07/02 13:05:37;;;;;;;440.75;338.05;;;;;;;;;;4999299;28;20197;-53
2022/07/02 13:08:03;;;;;;;497.55;316.85;;;;;;;;;;4987165;28;21057;-53
2022/07/02 13:10:29;;;;;;;477.40;318.75;;;;;;;;;;4981223;28;20209;-53
2022/07/02 13:12:55;;;;;;;417.95;291.05;;;;;;;;;;4984504;28;20304;-53
2022/07/02 13:15:21;;;;;;;444.90;297.35;;;;;;;;;;4989181;28;20213;-52
2022/07/02 13:17:47;;;;;;;412.55;292.77;;;;;;;;;;4988502;28;20177;-53
2022/07/02 13:20:13;;;;;;;387.38;281.63;;;;;;;;;;4992257;28;20636;-53
2022/07/02 13:22:39;;;;;;;479.48;317.95;;;;;;;;;;4982051;28;20220;-53
2022/07/02 13:25:06;;;;;;;454.70;313.95;;;;;;;;;;4986388;28;20292;-53
2022/07/02 13:27:32;;;;;;;396.42;294.00;;;;;;;;;;4986024;28;20244;-53
2022/07/02 13:29:58;;;;;;;434.02;307.92;;;;;;;;;;4991563;28;21276;-53
2022/07/02 13:32:24;;;;;;;413.23;296.65;;;;;;;;;;4990366;28;20213;-53
2022/07/02 13:34:50;;;;;;;369.98;284.10;;;;;;;;;;4998016;28;20217;-53
2022/07/02 13:37:16;;;;;;;415.65;317.90;;;;;;;;;;4995975;28;20225;-54
2022/07/02 13:39:43;;;;;;;433.70;320.52;;;;;;;;;;4985726;28;20311;-53
2022/07/02 13:42:09;;;;;;;401.17;317.73;;;;;;;;;;4988573;28;20189;-53
2022/07/02 13:44:36;;;;;;;463.27;340.38;;;;;;;;;;4991312;28;20181;-54
2022/07/02 13:47:02;;;;;;;392.85;327.70;;;;;;;;;;5006186;28;20319;-54
2022/07/02 13:49:28;;;;;;;415.27;307.13;;;;;;;;;;4987243;28;20292;-55
2022/07/02 13:51:54;;;;;;;521.13;344.42;;;;;;;;;;4988069;28;20216;-55
2022/07/02 13:54:20;;;;;;;465.55;325.55;;;;;;;;;;4988679;28;20188;-55
2022/07/02 13:56:46;;;;;;;401.55;314.48;;;;;;;;;;4997105;28;20285;-55
2022/07/02 13:59:12;;;;;;;425.02;319.15;;;;;;;;;;4992862;28;20221;-55